ムンバイ の空港の天気 - METARとTAF

チャットラパティー・シヴァージー国際空港 ( VABB / BOM ) - インド ムンバイ
飛行場実況気象(Metar)
観測時間10/19 23:30 IST (10/19 18:00 UTC)
風向・風速東南東 2m/s
視程3000m
天気現象煙霧
少しの雲 雲底高度 610m
全天の4割程度の雲 雲底高度 3050m
気温29℃
湿度74%
気圧1012hPa
METARVABB 191800Z 11003KT 3000 HZ FEW020 SCT100 29/24 Q1012 NOSIG
過去の天気等 Google飛行場航空写真 Wunderground天気予報

過去48時間のMETAR

飛行場予報(TAF)
発表時間: 10/19 22:30 IST (10/19 17:00 UTC)
予報対象時間: 19日23時 IST ~ 21日5時 IST
風向・風速東南東 3m/s
視程3000m
天気現象煙霧
少しの雲 雲底高度 610m
全天の4割程度の雲 雲底高度 3050m
20日5時 IST ~ 20日11時 IST に一時的に
視程2000m
天気現象弱い雷雨 弱いしゅう雨
全天の4割程度の雲 雲底高度 370m
少しの塔状積雲 雲底高度 910m
20日12時 IST ~ 20日14時 IST に徐々に
風向・風速西南西 4m/s
20日18時 IST ~ 20日23時 IST に一時的に
視程2000m
天気現象弱い雷雨 弱いしゅう雨
全天の4割程度の雲 雲底高度 370m
少しの塔状積雲 雲底高度 910m
21日0時 IST ~ 21日2時 IST に徐々に
風向・風速東北東 2m/s
TAF VABB 191700Z 1918/2024 11006KT 3000 HZ FEW020 SCT100
TEMPO 2000/2006 2000 -TSRA -SHRA SCT012 FEW030TCU CB OVC080
BECMG 2007/2009 24008KT
TEMPO 2013/2018 2000 -TSRA -SHRA SCT012 FEW030TCU CB OVC080
BECMG 2019/2021 07004KT